createdAt,value
2023-05-09T00:03:17.384Z,3.55
2023-05-09T00:08:38.038Z,1.73
2023-05-09T00:13:58.812Z,10.10
2023-05-09T00:19:19.149Z,4.80
2023-05-09T00:24:39.355Z,3.58
2023-05-09T00:29:59.844Z,3.25
2023-05-09T00:35:20.927Z,3.60
2023-05-09T00:40:41.900Z,3.10
2023-05-09T00:46:02.717Z,3.58
2023-05-09T00:51:24.055Z,4.07
2023-05-09T00:56:45.152Z,4.95
2023-05-09T01:02:05.858Z,7.88
2023-05-09T01:07:43.565Z,5.47
2023-05-09T01:13:15.044Z,2.30
2023-05-09T01:18:56.204Z,3.72
2023-05-09T01:24:39.984Z,4.00
2023-05-09T01:30:03.808Z,2.30
2023-05-09T01:35:26.454Z,3.50
2023-05-09T01:40:51.276Z,6.03
2023-05-09T01:46:14.221Z,2.90
2023-05-09T01:51:36.540Z,8.27
2023-05-09T01:56:58.863Z,6.03
2023-05-09T02:02:19.419Z,2.70
2023-05-09T02:07:41.707Z,3.67
2023-05-09T02:13:02.938Z,6.43
2023-05-09T02:18:23.605Z,4.30
2023-05-09T02:23:43.841Z,6.18
2023-05-09T02:29:07.025Z,2.97
2023-05-09T02:34:27.704Z,6.88
2023-05-09T02:39:50.672Z,4.20
2023-05-09T02:45:11.560Z,2.13
2023-05-09T02:50:32.284Z,5.90
2023-05-09T02:55:53.892Z,4.28
2023-05-09T03:01:14.796Z,5.07
2023-05-09T03:06:35.112Z,7.68
2023-05-09T03:11:56.765Z,3.72
2023-05-09T03:17:21.120Z,5.68
2023-05-09T03:28:05.521Z,4.18
2023-05-09T03:33:26.247Z,4.20
2023-05-09T03:38:48.022Z,14.10
2023-05-09T03:44:09.196Z,7.95
2023-05-09T03:49:29.768Z,5.53
2023-05-09T03:54:50.692Z,8.95
2023-05-09T04:00:12.543Z,4.80
2023-05-09T04:05:42.187Z,7.53
2023-05-09T04:11:08.313Z,8.00
2023-05-09T04:16:31.758Z,7.17
2023-05-09T04:21:53.965Z,5.30
2023-05-09T04:27:14.979Z,3.15
2023-05-09T04:32:36.821Z,10.68
2023-05-09T04:37:57.297Z,6.32
2023-05-09T04:43:20.016Z,4.25
2023-05-09T04:56:13.255Z,6.70
2023-05-09T05:01:33.559Z,4.53
2023-05-09T05:06:54.732Z,4.75
2023-05-09T05:12:16.377Z,4.57
2023-05-09T05:17:38.436Z,6.35
2023-05-09T05:23:01.227Z,3.92
2023-05-09T05:28:21.679Z,13.93
2023-05-09T05:33:42.732Z,8.43
2023-05-09T05:39:04.771Z,3.65
2023-05-09T05:44:25.498Z,3.55
2023-05-09T05:49:46.266Z,6.75
2023-05-09T05:55:07.761Z,8.43
2023-05-09T06:00:29.473Z,4.40
2023-05-09T06:05:56.551Z,7.05
2023-05-09T06:11:17.902Z,3.72
2023-05-09T06:16:38.888Z,5.32
2023-05-09T06:21:59.580Z,6.97
2023-05-09T06:27:20.300Z,4.35
2023-05-09T06:32:40.827Z,6.00
2023-05-09T06:38:01.408Z,7.55
2023-05-09T06:43:22.094Z,10.07
2023-05-09T06:48:44.008Z,7.85
2023-05-09T06:54:04.824Z,15.32
2023-05-09T06:59:25.229Z,10.05
2023-05-09T07:04:45.608Z,9.32
2023-05-09T07:10:11.425Z,5.90
2023-05-09T07:15:41.545Z,9.57
2023-05-09T07:21:03.707Z,11.65
2023-05-09T07:26:24.089Z,11.25
2023-05-09T07:31:44.963Z,12.05
2023-05-09T07:37:05.641Z,8.45
2023-05-09T07:42:26.369Z,6.10
2023-05-09T07:47:47.209Z,5.53
2023-05-09T07:53:07.793Z,8.75
2023-05-09T07:58:28.196Z,9.85
2023-05-09T08:03:48.932Z,6.53
2023-05-09T08:09:10.416Z,6.55
2023-05-09T08:14:31.474Z,7.70
2023-05-09T08:19:52.158Z,5.35
2023-05-09T08:25:15.270Z,7.68
2023-05-09T08:30:36.983Z,10.18
2023-05-09T08:35:57.289Z,8.43
2023-05-09T08:41:20.838Z,10.82
2023-05-09T08:46:44.483Z,9.93
2023-05-09T08:52:05.581Z,8.63
2023-05-09T08:57:27.937Z,7.80
2023-05-09T09:02:49.475Z,8.77
2023-05-09T09:08:11.732Z,7.13
2023-05-09T09:13:36.135Z,7.15
2023-05-09T09:18:58.912Z,15.35
2023-05-09T09:24:22.927Z,8.35
2023-05-09T09:29:43.422Z,12.18
2023-05-09T09:35:09.991Z,6.57
2023-05-09T09:40:30.958Z,7.57
2023-05-09T09:45:54.033Z,9.27
2023-05-09T09:51:14.545Z,7.10
2023-05-09T09:56:43.942Z,11.48
2023-05-09T10:02:08.225Z,6.68
2023-05-09T10:07:34.035Z,8.75
2023-05-09T10:12:58.365Z,7.28
2023-05-09T10:18:21.908Z,6.40
2023-05-09T10:23:48.429Z,6.93
2023-05-09T10:29:12.567Z,6.90
2023-05-09T10:39:57.364Z,8.70
2023-05-09T10:45:19.738Z,13.87
2023-05-09T10:50:42.750Z,16.00
2023-05-09T10:56:03.072Z,8.52
2023-05-09T11:01:35.352Z,10.02
2023-05-09T11:06:57.720Z,8.23
2023-05-09T11:12:21.886Z,9.77
2023-05-09T11:17:42.687Z,9.05
2023-05-09T11:23:04.801Z,10.18
2023-05-09T11:28:36.610Z,11.00
2023-05-09T11:34:04.631Z,11.60
2023-05-09T11:39:25.669Z,13.32
2023-05-09T11:44:48.487Z,13.68
2023-05-09T11:50:10.474Z,8.93
2023-05-09T11:55:32.602Z,11.20
2023-05-09T12:00:53.208Z,9.35
2023-05-09T12:06:16.484Z,12.82
2023-05-09T12:11:37.257Z,12.17
2023-05-09T12:16:58.458Z,12.43
2023-05-09T12:22:20.103Z,9.80
2023-05-09T12:27:41.722Z,18.02
2023-05-09T12:33:02.567Z,12.38
2023-05-09T12:38:23.310Z,13.45
2023-05-09T12:43:48.938Z,16.23
2023-05-09T12:49:20.915Z,11.23
2023-05-09T12:54:46.286Z,11.45
2023-05-09T13:00:09.754Z,11.48
2023-05-09T13:05:31.718Z,11.05
2023-05-09T13:11:00.798Z,14.13
2023-05-09T13:16:28.870Z,10.38
2023-05-09T13:21:49.351Z,9.98
2023-05-09T13:27:10.950Z,10.10
2023-05-09T13:32:31.587Z,8.80
2023-05-09T13:37:52.291Z,8.55
2023-05-09T13:43:12.418Z,16.20
2023-05-09T13:48:33.159Z,11.18
2023-05-09T13:53:53.870Z,8.52
2023-05-09T13:59:15.116Z,7.05
2023-05-09T14:04:35.698Z,5.80
2023-05-09T14:10:08.386Z,6.85
2023-05-09T14:15:36.447Z,6.60
2023-05-09T14:20:56.705Z,6.18
2023-05-09T14:26:17.648Z,5.57
2023-05-09T14:31:38.397Z,5.45
2023-05-09T14:43:58.091Z,9.43
2023-05-09T14:49:18.700Z,7.82
2023-05-09T14:54:39.507Z,6.60
2023-05-09T15:00:12.534Z,14.07
2023-05-09T15:05:37.622Z,7.20
2023-05-09T15:10:58.266Z,6.00
2023-05-09T15:16:19.581Z,7.63
2023-05-09T15:21:40.303Z,6.32
2023-05-09T15:27:00.847Z,5.53
2023-05-09T15:32:21.242Z,5.28
2023-05-09T15:37:41.913Z,8.00
2023-05-09T15:43:08.007Z,6.32
2023-05-09T15:48:31.905Z,4.53
2023-05-09T15:53:52.614Z,6.97
2023-05-09T15:59:12.897Z,5.95
2023-05-09T16:04:33.529Z,11.73
2023-05-09T16:09:53.855Z,12.52
2023-05-09T16:15:14.409Z,16.10
2023-05-09T16:20:34.614Z,15.52
2023-05-09T16:25:55.183Z,20.52
2023-05-09T16:31:15.536Z,24.27
2023-05-09T16:36:37.647Z,24.77
2023-05-09T16:41:58.578Z,21.50
2023-05-09T16:47:18.918Z,26.45
2023-05-09T16:52:39.797Z,20.55
2023-05-09T16:58:00.333Z,20.73
2023-05-09T17:03:20.949Z,26.70
2023-05-09T17:08:41.447Z,20.52
2023-05-09T17:14:03.294Z,21.08
2023-05-09T17:19:23.755Z,18.30
2023-05-09T17:24:44.264Z,17.08
2023-05-09T17:30:05.798Z,24.17
2023-05-09T17:35:26.329Z,19.83
2023-05-09T17:40:47.244Z,19.95
2023-05-09T17:46:08.055Z,16.95
2023-05-09T17:51:29.405Z,16.88
2023-05-09T17:56:55.241Z,17.02
2023-05-09T18:02:16.727Z,19.42
2023-05-09T18:07:39.367Z,22.92
2023-05-09T18:13:00.250Z,19.95
2023-05-09T18:18:20.708Z,26.15
2023-05-09T18:23:41.390Z,21.55
2023-05-09T18:29:01.896Z,25.02
2023-05-09T18:34:22.533Z,22.80
2023-05-09T18:39:43.365Z,22.65
2023-05-09T18:45:05.786Z,25.00
2023-05-09T18:50:27.750Z,21.00
2023-05-09T18:55:48.133Z,23.08
2023-05-09T19:01:11.448Z,23.80
2023-05-09T19:06:32.523Z,26.13
2023-05-09T19:11:56.467Z,28.83
2023-05-09T19:17:17.495Z,26.90
2023-05-09T19:22:41.122Z,26.20
2023-05-09T19:28:01.958Z,27.88
2023-05-09T19:33:22.407Z,27.15
2023-05-09T19:38:42.793Z,25.15
2023-05-09T19:44:03.630Z,26.52
2023-05-09T19:49:26.355Z,25.90
2023-05-09T19:54:47.106Z,25.33
2023-05-09T20:00:08.926Z,22.30
2023-05-09T20:05:29.372Z,22.63
2023-05-09T20:10:49.966Z,24.90
2023-05-09T20:16:11.185Z,22.38
2023-05-09T20:21:32.035Z,20.85
2023-05-09T20:26:55.035Z,21.83
2023-05-09T20:32:16.228Z,25.80
2023-05-09T20:37:37.354Z,24.98
2023-05-09T20:42:58.176Z,25.60
2023-05-09T20:48:19.161Z,24.73
2023-05-09T20:53:39.861Z,24.23
2023-05-09T20:59:01.030Z,26.05
2023-05-09T21:04:22.199Z,27.23
2023-05-09T21:09:42.479Z,28.60
2023-05-09T21:15:03.155Z,28.80
2023-05-09T21:20:23.768Z,13.75
2023-05-09T21:25:44.684Z,6.38
2023-05-09T21:31:05.576Z,5.10
2023-05-09T21:36:25.999Z,10.45
2023-05-09T21:41:47.388Z,5.15
2023-05-09T21:47:08.279Z,5.78
2023-05-09T21:52:28.735Z,2.55
2023-05-09T21:57:49.382Z,4.57
2023-05-09T22:03:09.881Z,4.95
2023-05-09T22:08:30.504Z,3.78
2023-05-09T22:13:50.693Z,5.40
2023-05-09T22:19:11.178Z,10.98
2023-05-09T22:24:31.629Z,10.73
2023-05-09T22:29:52.254Z,3.33
2023-05-09T22:35:13.185Z,4.68
2023-05-09T22:40:34.149Z,4.57
2023-05-09T22:45:54.854Z,3.08
2023-05-09T22:51:15.572Z,6.28
2023-05-09T22:56:36.317Z,4.03
2023-05-09T23:01:57.844Z,4.10
2023-05-09T23:07:18.321Z,3.47
2023-05-09T23:12:38.622Z,6.18
2023-05-09T23:17:59.193Z,3.95
2023-05-09T23:23:19.865Z,3.78
2023-05-09T23:28:40.586Z,4.18
2023-05-09T23:34:01.563Z,3.72
2023-05-09T23:39:22.118Z,3.55
2023-05-09T23:44:42.547Z,3.92
2023-05-09T23:50:03.518Z,5.53
2023-05-09T23:55:23.915Z,3.47
